createdAt,value
2022-08-04T00:03:55.533Z,12.10
2022-08-04T00:24:53.295Z,10.60
2022-08-04T00:35:22.679Z,10.90
2022-08-04T00:46:26.541Z,11.30
2022-08-04T00:57:34.189Z,12.60
2022-08-04T01:08:20.475Z,11.50
2022-08-04T01:19:00.902Z,13.30
2022-08-04T01:29:41.551Z,10.20
2022-08-04T01:40:18.066Z,11.10
2022-08-04T01:50:52.951Z,9.40
2022-08-04T02:01:22.637Z,13.10
2022-08-04T02:12:01.541Z,12.70
2022-08-04T02:22:34.174Z,9.40
2022-08-04T02:33:06.203Z,13.10
2022-08-04T02:43:51.130Z,14.60
2022-08-04T02:54:33.690Z,13.30
2022-08-04T03:05:15.198Z,14.50
2022-08-04T03:16:01.681Z,13.70
2022-08-04T03:27:02.442Z,15.90
2022-08-04T03:37:59.216Z,11.50
2022-08-04T03:48:51.301Z,10.30
2022-08-04T03:59:49.038Z,10.90
2022-08-04T04:10:31.902Z,10.40
2022-08-04T04:21:25.534Z,11.90
2022-08-04T04:32:07.054Z,12.40
2022-08-04T04:42:53.200Z,16.10
2022-08-04T04:53:29.072Z,15.50
2022-08-04T05:04:20.809Z,14.80
2022-08-04T05:14:52.211Z,17.60
2022-08-04T05:25:26.015Z,19.40
2022-08-04T05:36:23.486Z,23.90
2022-08-04T05:46:54.662Z,21.50
2022-08-04T05:57:25.382Z,19.60
2022-08-04T06:08:12.420Z,19.90
2022-08-04T06:19:59.528Z,18.00
2022-08-04T06:29:37.540Z,17.40
2022-08-04T06:40:30.899Z,16.80
2022-08-04T06:51:24.372Z,14.40
2022-08-04T07:01:51.766Z,14.70
2022-08-04T07:12:22.096Z,13.40
2022-08-04T07:22:53.049Z,13.30
2022-08-04T07:33:23.082Z,11.80
2022-08-04T07:43:52.760Z,10.90
2022-08-04T07:54:22.541Z,10.60
2022-08-04T08:04:52.504Z,10.00
2022-08-04T08:15:22.216Z,8.10
2022-08-04T08:25:51.576Z,8.80
2022-08-04T08:36:28.360Z,8.50
2022-08-04T08:47:09.198Z,8.90
2022-08-04T08:57:59.857Z,10.40
2022-08-04T09:08:52.431Z,8.60
2022-08-04T09:19:38.005Z,9.20
2022-08-04T09:30:12.509Z,7.90
2022-08-04T09:40:55.408Z,8.50
2022-08-04T09:51:56.720Z,7.60
2022-08-04T10:02:33.427Z,7.20
2022-08-04T10:13:19.666Z,7.60
2022-08-04T10:24:01.398Z,7.80
2022-08-04T10:34:38.390Z,7.20
2022-08-04T10:45:16.005Z,7.50
2022-08-04T10:56:05.561Z,7.20
2022-08-04T11:06:39.542Z,6.10
2022-08-04T11:17:13.268Z,6.30
2022-08-04T11:27:53.070Z,7.00
2022-08-04T11:38:32.200Z,6.10
2022-08-04T11:49:07.577Z,4.90
2022-08-04T12:10:41.097Z,5.30
2022-08-04T12:21:20.355Z,5.10
2022-08-04T12:31:54.703Z,5.00
2022-08-04T12:42:31.644Z,4.60
2022-08-04T12:53:03.452Z,4.90
2022-08-04T13:03:39.644Z,5.10
2022-08-04T13:14:26.476Z,5.00
2022-08-04T13:26:41.488Z,4.10
2022-08-04T13:35:55.856Z,5.30
2022-08-04T13:46:28.915Z,6.30
2022-08-04T13:57:02.008Z,5.80
2022-08-04T14:07:33.248Z,5.30
2022-08-04T14:18:21.339Z,4.80
2022-08-04T14:29:09.604Z,5.00
2022-08-04T14:40:18.506Z,5.00
2022-08-04T14:50:44.933Z,5.70
2022-08-04T15:01:17.146Z,5.80
2022-08-04T15:11:47.680Z,5.30
2022-08-04T15:22:26.849Z,5.60
2022-08-04T15:33:00.014Z,6.00
2022-08-04T15:43:55.257Z,5.30
2022-08-04T15:54:32.579Z,5.80
2022-08-04T16:05:37.189Z,5.60
2022-08-04T16:16:06.692Z,5.90
2022-08-04T16:26:54.412Z,4.80
2022-08-04T16:37:26.005Z,5.70
2022-08-04T16:48:10.964Z,5.40
2022-08-04T16:58:53.951Z,5.70
2022-08-04T17:09:28.408Z,4.90
2022-08-04T17:19:58.231Z,5.00
2022-08-04T17:30:33.888Z,4.70
2022-08-04T17:41:19.068Z,5.00
2022-08-04T17:52:02.957Z,4.80
2022-08-04T18:02:37.855Z,4.80
2022-08-04T18:13:14.264Z,5.70
2022-08-04T18:23:51.007Z,5.70
2022-08-04T18:34:24.207Z,5.80
2022-08-04T18:44:53.766Z,6.30
2022-08-04T18:55:55.323Z,6.40
2022-08-04T19:06:12.899Z,5.60
2022-08-04T19:16:46.043Z,6.10
2022-08-04T19:27:17.207Z,6.30
2022-08-04T19:37:57.232Z,6.60
2022-08-04T19:48:31.440Z,5.90
2022-08-04T19:59:01.528Z,6.20
2022-08-04T20:09:31.151Z,6.50
2022-08-04T20:20:09.101Z,7.10
2022-08-04T20:30:38.661Z,7.40
2022-08-04T20:41:08.866Z,7.60
2022-08-04T20:51:40.736Z,7.50
2022-08-04T21:02:16.297Z,8.00
2022-08-04T21:12:49.842Z,10.50
2022-08-04T21:23:22.305Z,8.60
2022-08-04T21:33:58.350Z,7.70
2022-08-04T21:44:28.765Z,7.60
2022-08-04T21:54:58.187Z,8.70
2022-08-04T22:05:32.830Z,8.30
2022-08-04T22:16:04.324Z,8.70
2022-08-04T22:26:34.682Z,7.60
2022-08-04T22:37:12.451Z,7.60
2022-08-04T22:47:41.869Z,8.50
2022-08-04T22:58:22.029Z,8.10
2022-08-04T23:08:59.403Z,8.40
2022-08-04T23:19:30.141Z,7.30
2022-08-04T23:30:01.092Z,7.50
2022-08-04T23:40:34.306Z,8.30
2022-08-04T23:51:14.512Z,8.10
